sensor_id;sensor_type;location;lat;lon;timestamp;P1;durP1;ratioP1;P2;durP2;ratioP2
15022;SDS011;19850;49.576;10.880;2022-09-06T00:02:04;3.50;;;3.00;;
15022;SDS011;19850;49.576;10.880;2022-09-06T00:06:08;4.07;;;2.87;;
15022;SDS011;19850;49.576;10.880;2022-09-06T00:10:13;6.93;;;3.27;;
15022;SDS011;19850;49.576;10.880;2022-09-06T00:14:16;4.20;;;3.10;;
15022;SDS011;19850;49.576;10.880;2022-09-06T00:18:20;4.20;;;2.70;;
15022;SDS011;19850;49.576;10.880;2022-09-06T00:22:23;6.33;;;3.07;;
15022;SDS011;19850;49.576;10.880;2022-09-06T00:26:26;4.13;;;2.90;;
15022;SDS011;19850;49.576;10.880;2022-09-06T00:30:29;5.73;;;3.23;;
15022;SDS011;19850;49.576;10.880;2022-09-06T00:34:35;6.93;;;2.93;;
15022;SDS011;19850;49.576;10.880;2022-09-06T00:38:38;5.90;;;2.73;;
15022;SDS011;19850;49.576;10.880;2022-09-06T00:42:41;4.77;;;2.83;;
15022;SDS011;19850;49.576;10.880;2022-09-06T00:46:45;4.90;;;3.00;;
15022;SDS011;19850;49.576;10.880;2022-09-06T00:50:51;4.23;;;3.13;;
15022;SDS011;19850;49.576;10.880;2022-09-06T00:54:56;3.73;;;2.97;;
15022;SDS011;19850;49.576;10.880;2022-09-06T00:58:59;6.03;;;3.10;;
15022;SDS011;19850;49.576;10.880;2022-09-06T01:03:02;5.17;;;3.40;;
15022;SDS011;19850;49.576;10.880;2022-09-06T01:07:09;4.67;;;3.13;;
15022;SDS011;19850;49.576;10.880;2022-09-06T01:15:52;7.10;;;3.53;;
15022;SDS011;19850;49.576;10.880;2022-09-06T01:20:12;5.70;;;3.30;;
15022;SDS011;19850;49.576;10.880;2022-09-06T01:24:31;5.83;;;3.60;;
15022;SDS011;19850;49.576;10.880;2022-09-06T01:28:45;6.33;;;3.30;;
15022;SDS011;19850;49.576;10.880;2022-09-06T01:32:50;3.43;;;3.00;;
15022;SDS011;19850;49.576;10.880;2022-09-06T01:36:56;5.17;;;3.40;;
15022;SDS011;19850;49.576;10.880;2022-09-06T01:41:11;4.60;;;3.20;;
15022;SDS011;19850;49.576;10.880;2022-09-06T01:45:16;4.87;;;3.03;;
15022;SDS011;19850;49.576;10.880;2022-09-06T01:49:22;5.23;;;3.70;;
15022;SDS011;19850;49.576;10.880;2022-09-06T01:53:45;4.53;;;3.50;;
15022;SDS011;19850;49.576;10.880;2022-09-06T01:58:00;4.83;;;3.30;;
15022;SDS011;19850;49.576;10.880;2022-09-06T02:02:12;9.07;;;3.40;;
15022;SDS011;19850;49.576;10.880;2022-09-06T02:06:19;5.40;;;3.10;;
15022;SDS011;19850;49.576;10.880;2022-09-06T02:10:24;5.10;;;3.63;;
15022;SDS011;19850;49.576;10.880;2022-09-06T02:14:30;4.33;;;3.40;;
15022;SDS011;19850;49.576;10.880;2022-09-06T02:18:37;5.63;;;3.50;;
15022;SDS011;19850;49.576;10.880;2022-09-06T02:22:42;5.93;;;3.40;;
15022;SDS011;19850;49.576;10.880;2022-09-06T02:26:47;4.47;;;3.50;;
15022;SDS011;19850;49.576;10.880;2022-09-06T02:30:52;8.03;;;3.83;;
15022;SDS011;19850;49.576;10.880;2022-09-06T02:35:04;4.63;;;3.70;;
15022;SDS011;19850;49.576;10.880;2022-09-06T02:39:10;8.33;;;3.60;;
15022;SDS011;19850;49.576;10.880;2022-09-06T02:43:13;5.40;;;3.80;;
15022;SDS011;19850;49.576;10.880;2022-09-06T02:47:16;5.50;;;3.83;;
15022;SDS011;19850;49.576;10.880;2022-09-06T02:51:20;4.53;;;4.03;;
15022;SDS011;19850;49.576;10.880;2022-09-06T02:55:23;4.80;;;4.13;;
15022;SDS011;19850;49.576;10.880;2022-09-06T02:59:25;5.23;;;3.90;;
15022;SDS011;19850;49.576;10.880;2022-09-06T03:03:28;6.13;;;3.93;;
15022;SDS011;19850;49.576;10.880;2022-09-06T03:07:33;6.53;;;4.23;;
15022;SDS011;19850;49.576;10.880;2022-09-06T03:11:36;6.33;;;4.40;;
15022;SDS011;19850;49.576;10.880;2022-09-06T03:15:39;6.07;;;4.20;;
15022;SDS011;19850;49.576;10.880;2022-09-06T03:19:41;6.27;;;3.90;;
15022;SDS011;19850;49.576;10.880;2022-09-06T03:23:45;5.37;;;4.80;;
15022;SDS011;19850;49.576;10.880;2022-09-06T03:27:49;10.17;;;5.17;;
15022;SDS011;19850;49.576;10.880;2022-09-06T03:31:52;6.50;;;4.80;;
15022;SDS011;19850;49.576;10.880;2022-09-06T03:35:55;6.73;;;4.60;;
15022;SDS011;19850;49.576;10.880;2022-09-06T03:40:01;5.20;;;4.53;;
15022;SDS011;19850;49.576;10.880;2022-09-06T03:44:05;5.47;;;4.80;;
15022;SDS011;19850;49.576;10.880;2022-09-06T03:48:07;7.03;;;4.90;;
15022;SDS011;19850;49.576;10.880;2022-09-06T03:52:10;6.90;;;5.13;;
15022;SDS011;19850;49.576;10.880;2022-09-06T03:56:15;5.13;;;4.63;;
15022;SDS011;19850;49.576;10.880;2022-09-06T04:00:17;6.30;;;5.43;;
15022;SDS011;19850;49.576;10.880;2022-09-06T04:04:20;7.87;;;5.33;;
15022;SDS011;19850;49.576;10.880;2022-09-06T04:08:23;8.10;;;4.77;;
15022;SDS011;19850;49.576;10.880;2022-09-06T04:12:27;5.93;;;5.30;;
15022;SDS011;19850;49.576;10.880;2022-09-06T04:16:31;5.53;;;5.03;;
15022;SDS011;19850;49.576;10.880;2022-09-06T04:20:33;10.43;;;5.20;;
15022;SDS011;19850;49.576;10.880;2022-09-06T04:24:36;8.37;;;5.37;;
15022;SDS011;19850;49.576;10.880;2022-09-06T04:28:40;8.07;;;5.40;;
15022;SDS011;19850;49.576;10.880;2022-09-06T04:32:43;7.13;;;5.40;;
15022;SDS011;19850;49.576;10.880;2022-09-06T04:36:46;7.37;;;5.73;;
15022;SDS011;19850;49.576;10.880;2022-09-06T04:40:49;7.40;;;5.70;;
15022;SDS011;19850;49.576;10.880;2022-09-06T04:44:53;7.37;;;6.13;;
15022;SDS011;19850;49.576;10.880;2022-09-06T04:48:56;6.37;;;5.77;;
15022;SDS011;19850;49.576;10.880;2022-09-06T04:53:01;7.73;;;6.00;;
15022;SDS011;19850;49.576;10.880;2022-09-06T04:57:04;6.90;;;6.20;;
15022;SDS011;19850;49.576;10.880;2022-09-06T05:01:08;8.00;;;6.10;;
15022;SDS011;19850;49.576;10.880;2022-09-06T05:05:11;9.10;;;5.90;;
15022;SDS011;19850;49.576;10.880;2022-09-06T05:09:14;6.90;;;6.00;;
15022;SDS011;19850;49.576;10.880;2022-09-06T05:13:17;7.30;;;6.03;;
15022;SDS011;19850;49.576;10.880;2022-09-06T05:17:22;8.00;;;5.90;;
15022;SDS011;19850;49.576;10.880;2022-09-06T05:21:24;9.93;;;5.90;;
15022;SDS011;19850;49.576;10.880;2022-09-06T05:25:27;8.83;;;6.77;;
15022;SDS011;19850;49.576;10.880;2022-09-06T05:29:30;8.70;;;6.63;;
15022;SDS011;19850;49.576;10.880;2022-09-06T05:33:34;7.53;;;6.17;;
15022;SDS011;19850;49.576;10.880;2022-09-06T05:37:37;7.10;;;6.03;;
15022;SDS011;19850;49.576;10.880;2022-09-06T05:41:40;10.93;;;7.50;;
15022;SDS011;19850;49.576;10.880;2022-09-06T05:45:43;11.90;;;7.17;;
15022;SDS011;19850;49.576;10.880;2022-09-06T05:49:47;12.83;;;6.73;;
15022;SDS011;19850;49.576;10.880;2022-09-06T05:53:50;8.27;;;7.37;;
15022;SDS011;19850;49.576;10.880;2022-09-06T05:57:53;8.83;;;6.60;;
15022;SDS011;19850;49.576;10.880;2022-09-06T06:01:56;9.67;;;7.47;;
15022;SDS011;19850;49.576;10.880;2022-09-06T06:06:00;8.80;;;7.73;;
15022;SDS011;19850;49.576;10.880;2022-09-06T06:10:03;9.63;;;7.00;;
15022;SDS011;19850;49.576;10.880;2022-09-06T06:14:07;8.00;;;7.03;;
15022;SDS011;19850;49.576;10.880;2022-09-06T06:18:10;9.17;;;8.13;;
15022;SDS011;19850;49.576;10.880;2022-09-06T06:22:14;10.10;;;7.97;;
15022;SDS011;19850;49.576;10.880;2022-09-06T06:26:17;8.90;;;7.87;;
15022;SDS011;19850;49.576;10.880;2022-09-06T06:30:20;8.60;;;7.57;;
15022;SDS011;19850;49.576;10.880;2022-09-06T06:34:23;9.43;;;8.63;;
15022;SDS011;19850;49.576;10.880;2022-09-06T06:38:31;8.73;;;7.83;;
15022;SDS011;19850;49.576;10.880;2022-09-06T06:42:34;11.23;;;8.93;;
15022;SDS011;19850;49.576;10.880;2022-09-06T06:46:37;9.43;;;8.53;;
15022;SDS011;19850;49.576;10.880;2022-09-06T06:50:41;9.77;;;8.77;;
15022;SDS011;19850;49.576;10.880;2022-09-06T06:54:46;9.43;;;8.43;;
15022;SDS011;19850;49.576;10.880;2022-09-06T06:58:51;14.20;;;7.70;;
15022;SDS011;19850;49.576;10.880;2022-09-06T07:02:56;10.67;;;9.27;;
15022;SDS011;19850;49.576;10.880;2022-09-06T07:07:00;12.67;;;8.53;;
15022;SDS011;19850;49.576;10.880;2022-09-06T07:11:24;9.63;;;8.60;;
15022;SDS011;19850;49.576;10.880;2022-09-06T07:15:27;15.33;;;9.83;;
15022;SDS011;19850;49.576;10.880;2022-09-06T07:19:30;9.47;;;8.43;;
15022;SDS011;19850;49.576;10.880;2022-09-06T07:23:53;13.23;;;9.30;;
15022;SDS011;19850;49.576;10.880;2022-09-06T07:28:13;10.57;;;8.67;;
15022;SDS011;19850;49.576;10.880;2022-09-06T07:32:15;9.43;;;8.53;;
15022;SDS011;19850;49.576;10.880;2022-09-06T07:36:19;8.73;;;7.37;;
15022;SDS011;19850;49.576;10.880;2022-09-06T07:40:21;9.93;;;8.17;;
15022;SDS011;19850;49.576;10.880;2022-09-06T07:44:26;10.80;;;7.23;;
15022;SDS011;19850;49.576;10.880;2022-09-06T07:48:30;9.00;;;6.37;;
15022;SDS011;19850;49.576;10.880;2022-09-06T07:52:34;10.07;;;6.60;;
15022;SDS011;19850;49.576;10.880;2022-09-06T07:56:57;13.57;;;5.57;;
15022;SDS011;19850;49.576;10.880;2022-09-06T08:01:15;8.47;;;5.73;;
15022;SDS011;19850;49.576;10.880;2022-09-06T08:05:19;10.20;;;6.93;;
15022;SDS011;19850;49.576;10.880;2022-09-06T08:09:42;8.17;;;6.10;;
15022;SDS011;19850;49.576;10.880;2022-09-06T08:13:47;8.57;;;6.67;;
15022;SDS011;19850;49.576;10.880;2022-09-06T08:17:52;12.03;;;7.00;;
15022;SDS011;19850;49.576;10.880;2022-09-06T08:21:55;10.20;;;6.20;;
15022;SDS011;19850;49.576;10.880;2022-09-06T08:25:58;6.50;;;5.77;;
15022;SDS011;19850;49.576;10.880;2022-09-06T08:30:01;7.13;;;6.10;;
15022;SDS011;19850;49.576;10.880;2022-09-06T08:34:05;6.40;;;5.77;;
15022;SDS011;19850;49.576;10.880;2022-09-06T08:38:08;7.27;;;6.30;;
15022;SDS011;19850;49.576;10.880;2022-09-06T08:42:11;8.53;;;6.73;;
15022;SDS011;19850;49.576;10.880;2022-09-06T08:46:13;6.93;;;5.97;;
15022;SDS011;19850;49.576;10.880;2022-09-06T08:50:19;6.43;;;5.77;;
15022;SDS011;19850;49.576;10.880;2022-09-06T08:54:24;9.73;;;6.47;;
15022;SDS011;19850;49.576;10.880;2022-09-06T08:58:38;5.80;;;5.20;;
15022;SDS011;19850;49.576;10.880;2022-09-06T09:02:48;6.87;;;6.17;;
15022;SDS011;19850;49.576;10.880;2022-09-06T09:06:54;8.03;;;5.97;;
15022;SDS011;19850;49.576;10.880;2022-09-06T09:11:01;11.87;;;6.43;;
15022;SDS011;19850;49.576;10.880;2022-09-06T09:15:06;5.20;;;4.70;;
15022;SDS011;19850;49.576;10.880;2022-09-06T09:19:11;8.87;;;6.57;;
15022;SDS011;19850;49.576;10.880;2022-09-06T09:23:16;7.60;;;6.20;;
15022;SDS011;19850;49.576;10.880;2022-09-06T09:27:20;6.10;;;5.53;;
15022;SDS011;19850;49.576;10.880;2022-09-06T09:31:30;8.67;;;6.00;;
15022;SDS011;19850;49.576;10.880;2022-09-06T09:35:36;10.27;;;5.50;;
15022;SDS011;19850;49.576;10.880;2022-09-06T09:39:43;7.90;;;5.80;;
15022;SDS011;19850;49.576;10.880;2022-09-06T09:43:53;6.77;;;5.33;;
15022;SDS011;19850;49.576;10.880;2022-09-06T09:48:15;5.80;;;5.20;;
15022;SDS011;19850;49.576;10.880;2022-09-06T09:52:22;5.00;;;4.57;;
15022;SDS011;19850;49.576;10.880;2022-09-06T09:56:31;6.77;;;4.93;;
15022;SDS011;19850;49.576;10.880;2022-09-06T10:00:36;5.97;;;5.27;;
15022;SDS011;19850;49.576;10.880;2022-09-06T10:04:43;7.97;;;5.13;;
15022;SDS011;19850;49.576;10.880;2022-09-06T10:08:47;5.57;;;4.00;;
15022;SDS011;19850;49.576;10.880;2022-09-06T10:13:04;6.43;;;4.37;;
15022;SDS011;19850;49.576;10.880;2022-09-06T10:17:07;4.83;;;4.20;;
15022;SDS011;19850;49.576;10.880;2022-09-06T10:21:20;7.03;;;3.90;;
15022;SDS011;19850;49.576;10.880;2022-09-06T10:25:37;5.53;;;4.23;;
15022;SDS011;19850;49.576;10.880;2022-09-06T10:29:47;5.17;;;4.00;;
15022;SDS011;19850;49.576;10.880;2022-09-06T10:33:58;6.20;;;4.07;;
15022;SDS011;19850;49.576;10.880;2022-09-06T10:38:09;5.10;;;4.00;;
15022;SDS011;19850;49.576;10.880;2022-09-06T10:42:25;4.80;;;3.50;;
15022;SDS011;19850;49.576;10.880;2022-09-06T10:46:33;5.73;;;3.10;;
15022;SDS011;19850;49.576;10.880;2022-09-06T10:50:38;40.27;;;4.43;;
15022;SDS011;19850;49.576;10.880;2022-09-06T10:54:44;3.87;;;2.90;;
15022;SDS011;19850;49.576;10.880;2022-09-06T10:58:49;4.40;;;3.10;;
15022;SDS011;19850;49.576;10.880;2022-09-06T11:03:18;3.40;;;2.33;;
15022;SDS011;19850;49.576;10.880;2022-09-06T11:07:44;3.63;;;2.40;;
15022;SDS011;19850;49.576;10.880;2022-09-06T11:12:09;8.23;;;2.53;;
15022;SDS011;19850;49.576;10.880;2022-09-06T11:16:16;5.17;;;2.30;;
15022;SDS011;19850;49.576;10.880;2022-09-06T11:20:23;5.80;;;2.10;;
15022;SDS011;19850;49.576;10.880;2022-09-06T11:24:35;4.87;;;2.60;;
15022;SDS011;19850;49.576;10.880;2022-09-06T11:28:46;2.90;;;2.20;;
15022;SDS011;19850;49.576;10.880;2022-09-06T11:32:51;7.03;;;2.00;;
15022;SDS011;19850;49.576;10.880;2022-09-06T11:37:09;4.77;;;2.40;;
15022;SDS011;19850;49.576;10.880;2022-09-06T11:41:27;5.70;;;2.40;;
15022;SDS011;19850;49.576;10.880;2022-09-06T11:45:38;3.97;;;2.17;;
15022;SDS011;19850;49.576;10.880;2022-09-06T11:49:42;3.40;;;2.13;;
15022;SDS011;19850;49.576;10.880;2022-09-06T11:54:04;2.90;;;2.10;;
15022;SDS011;19850;49.576;10.880;2022-09-06T11:58:18;3.97;;;2.00;;
15022;SDS011;19850;49.576;10.880;2022-09-06T12:02:28;4.10;;;2.13;;
15022;SDS011;19850;49.576;10.880;2022-09-06T12:06:33;4.53;;;2.30;;
15022;SDS011;19850;49.576;10.880;2022-09-06T12:10:44;5.43;;;2.27;;
15022;SDS011;19850;49.576;10.880;2022-09-06T12:14:49;4.87;;;2.40;;
15022;SDS011;19850;49.576;10.880;2022-09-06T12:18:53;5.27;;;2.50;;
15022;SDS011;19850;49.576;10.880;2022-09-06T12:22:58;8.17;;;2.13;;
15022;SDS011;19850;49.576;10.880;2022-09-06T12:27:09;3.80;;;2.33;;
15022;SDS011;19850;49.576;10.880;2022-09-06T12:31:21;7.43;;;2.50;;
15022;SDS011;19850;49.576;10.880;2022-09-06T12:35:26;5.20;;;2.10;;
15022;SDS011;19850;49.576;10.880;2022-09-06T12:39:55;4.10;;;2.00;;
15022;SDS011;19850;49.576;10.880;2022-09-06T12:44:00;4.60;;;2.27;;
15022;SDS011;19850;49.576;10.880;2022-09-06T12:48:04;7.60;;;2.40;;
15022;SDS011;19850;49.576;10.880;2022-09-06T12:52:10;4.80;;;2.70;;
15022;SDS011;19850;49.576;10.880;2022-09-06T12:56:14;3.43;;;2.30;;
15022;SDS011;19850;49.576;10.880;2022-09-06T13:00:23;3.63;;;2.10;;
15022;SDS011;19850;49.576;10.880;2022-09-06T13:04:30;4.23;;;2.07;;
15022;SDS011;19850;49.576;10.880;2022-09-06T13:08:35;10.20;;;2.30;;
15022;SDS011;19850;49.576;10.880;2022-09-06T13:12:41;3.33;;;2.00;;
15022;SDS011;19850;49.576;10.880;2022-09-06T13:16:48;3.10;;;2.07;;
15022;SDS011;19850;49.576;10.880;2022-09-06T13:21:01;5.40;;;2.07;;
15022;SDS011;19850;49.576;10.880;2022-09-06T13:25:06;4.90;;;2.10;;
15022;SDS011;19850;49.576;10.880;2022-09-06T13:29:21;6.97;;;2.20;;
15022;SDS011;19850;49.576;10.880;2022-09-06T13:33:25;3.90;;;1.97;;
15022;SDS011;19850;49.576;10.880;2022-09-06T13:37:29;6.20;;;2.10;;
15022;SDS011;19850;49.576;10.880;2022-09-06T13:41:35;9.80;;;2.20;;
15022;SDS011;19850;49.576;10.880;2022-09-06T13:45:41;5.40;;;1.80;;
15022;SDS011;19850;49.576;10.880;2022-09-06T13:49:46;2.33;;;1.67;;
15022;SDS011;19850;49.576;10.880;2022-09-06T13:53:49;3.33;;;1.90;;
15022;SDS011;19850;49.576;10.880;2022-09-06T13:57:52;4.13;;;1.80;;
15022;SDS011;19850;49.576;10.880;2022-09-06T14:01:57;5.70;;;2.10;;
15022;SDS011;19850;49.576;10.880;2022-09-06T14:06:03;4.20;;;1.87;;
15022;SDS011;19850;49.576;10.880;2022-09-06T14:10:07;5.50;;;2.00;;
15022;SDS011;19850;49.576;10.880;2022-09-06T14:14:11;6.27;;;1.70;;
15022;SDS011;19850;49.576;10.880;2022-09-06T14:18:15;4.90;;;1.80;;
15022;SDS011;19850;49.576;10.880;2022-09-06T14:22:19;3.43;;;1.60;;
15022;SDS011;19850;49.576;10.880;2022-09-06T14:26:22;3.37;;;1.80;;
15022;SDS011;19850;49.576;10.880;2022-09-06T14:30:25;2.87;;;1.50;;
15022;SDS011;19850;49.576;10.880;2022-09-06T14:34:28;5.67;;;1.50;;
15022;SDS011;19850;49.576;10.880;2022-09-06T14:38:33;3.37;;;1.67;;
15022;SDS011;19850;49.576;10.880;2022-09-06T14:42:37;3.10;;;1.67;;
15022;SDS011;19850;49.576;10.880;2022-09-06T14:46:39;5.93;;;1.80;;
15022;SDS011;19850;49.576;10.880;2022-09-06T14:50:42;4.87;;;1.60;;
15022;SDS011;19850;49.576;10.880;2022-09-06T14:54:47;4.67;;;1.60;;
15022;SDS011;19850;49.576;10.880;2022-09-06T14:58:50;4.40;;;1.80;;
15022;SDS011;19850;49.576;10.880;2022-09-06T15:02:58;7.07;;;1.70;;
15022;SDS011;19850;49.576;10.880;2022-09-06T15:07:01;3.03;;;1.70;;
15022;SDS011;19850;49.576;10.880;2022-09-06T15:11:06;2.63;;;1.50;;
15022;SDS011;19850;49.576;10.880;2022-09-06T15:15:09;7.63;;;1.80;;
15022;SDS011;19850;49.576;10.880;2022-09-06T15:19:12;7.50;;;1.87;;
15022;SDS011;19850;49.576;10.880;2022-09-06T15:23:15;2.60;;;1.83;;
15022;SDS011;19850;49.576;10.880;2022-09-06T15:27:27;3.10;;;1.60;;
15022;SDS011;19850;49.576;10.880;2022-09-06T15:31:31;5.13;;;1.60;;
15022;SDS011;19850;49.576;10.880;2022-09-06T15:35:35;2.47;;;1.73;;
15022;SDS011;19850;49.576;10.880;2022-09-06T15:39:39;9.23;;;1.60;;
15022;SDS011;19850;49.576;10.880;2022-09-06T15:43:44;5.63;;;1.73;;
15022;SDS011;19850;49.576;10.880;2022-09-06T15:47:48;4.03;;;1.60;;
15022;SDS011;19850;49.576;10.880;2022-09-06T15:51:51;5.87;;;1.80;;
15022;SDS011;19850;49.576;10.880;2022-09-06T15:55:56;4.80;;;1.80;;
15022;SDS011;19850;49.576;10.880;2022-09-06T16:00:02;4.37;;;1.77;;
15022;SDS011;19850;49.576;10.880;2022-09-06T16:04:06;2.57;;;1.43;;
15022;SDS011;19850;49.576;10.880;2022-09-06T16:08:08;2.43;;;1.73;;
15022;SDS011;19850;49.576;10.880;2022-09-06T16:12:11;7.00;;;1.80;;
15022;SDS011;19850;49.576;10.880;2022-09-06T16:16:16;2.93;;;1.63;;
15022;SDS011;19850;49.576;10.880;2022-09-06T16:20:19;4.80;;;1.57;;
15022;SDS011;19850;49.576;10.880;2022-09-06T16:24:23;3.37;;;1.80;;
15022;SDS011;19850;49.576;10.880;2022-09-06T16:28:27;5.93;;;1.70;;
15022;SDS011;19850;49.576;10.880;2022-09-06T16:32:32;4.13;;;1.63;;
15022;SDS011;19850;49.576;10.880;2022-09-06T16:36:36;4.33;;;1.70;;
15022;SDS011;19850;49.576;10.880;2022-09-06T16:40:42;4.30;;;1.80;;
15022;SDS011;19850;49.576;10.880;2022-09-06T16:44:45;3.80;;;1.67;;
15022;SDS011;19850;49.576;10.880;2022-09-06T16:48:53;3.03;;;1.60;;
15022;SDS011;19850;49.576;10.880;2022-09-06T16:52:57;5.23;;;1.83;;
15022;SDS011;19850;49.576;10.880;2022-09-06T16:57:00;3.80;;;1.60;;
15022;SDS011;19850;49.576;10.880;2022-09-06T17:01:03;6.33;;;2.03;;
15022;SDS011;19850;49.576;10.880;2022-09-06T17:05:08;3.73;;;1.90;;
15022;SDS011;19850;49.576;10.880;2022-09-06T17:09:11;6.07;;;2.50;;
15022;SDS011;19850;49.576;10.880;2022-09-06T17:13:15;6.47;;;2.57;;
15022;SDS011;19850;49.576;10.880;2022-09-06T17:17:18;2.67;;;2.10;;
15022;SDS011;19850;49.576;10.880;2022-09-06T17:21:22;7.03;;;2.40;;
15022;SDS011;19850;49.576;10.880;2022-09-06T17:25:25;3.30;;;2.30;;
15022;SDS011;19850;49.576;10.880;2022-09-06T17:29:28;5.30;;;2.37;;
15022;SDS011;19850;49.576;10.880;2022-09-06T17:33:33;5.27;;;2.87;;
15022;SDS011;19850;49.576;10.880;2022-09-06T17:37:38;18.07;;;10.23;;
15022;SDS011;19850;49.576;10.880;2022-09-06T17:41:41;8.17;;;3.60;;
15022;SDS011;19850;49.576;10.880;2022-09-06T17:45:46;11.50;;;4.70;;
15022;SDS011;19850;49.576;10.880;2022-09-06T17:49:49;14.90;;;6.70;;
15022;SDS011;19850;49.576;10.880;2022-09-06T17:53:53;21.80;;;6.20;;
15022;SDS011;19850;49.576;10.880;2022-09-06T17:57:56;13.37;;;6.97;;
15022;SDS011;19850;49.576;10.880;2022-09-06T18:01:59;13.07;;;6.47;;
15022;SDS011;19850;49.576;10.880;2022-09-06T18:06:02;21.93;;;6.80;;
15022;SDS011;19850;49.576;10.880;2022-09-06T18:10:09;7.57;;;3.50;;
15022;SDS011;19850;49.576;10.880;2022-09-06T18:14:14;7.10;;;3.20;;
15022;SDS011;19850;49.576;10.880;2022-09-06T18:18:18;15.30;;;7.23;;
15022;SDS011;19850;49.576;10.880;2022-09-06T18:22:21;16.83;;;7.40;;
15022;SDS011;19850;49.576;10.880;2022-09-06T18:26:26;17.07;;;6.87;;
15022;SDS011;19850;49.576;10.880;2022-09-06T18:30:29;11.03;;;5.37;;
15022;SDS011;19850;49.576;10.880;2022-09-06T18:34:32;13.57;;;5.83;;
15022;SDS011;19850;49.576;10.880;2022-09-06T18:38:35;12.23;;;5.03;;
15022;SDS011;19850;49.576;10.880;2022-09-06T18:42:42;6.03;;;3.20;;
15022;SDS011;19850;49.576;10.880;2022-09-06T18:46:45;7.90;;;3.40;;
15022;SDS011;19850;49.576;10.880;2022-09-06T18:50:48;7.23;;;3.53;;
15022;SDS011;19850;49.576;10.880;2022-09-06T18:54:51;9.47;;;3.70;;
15022;SDS011;19850;49.576;10.880;2022-09-06T18:58:56;7.93;;;3.50;;
15022;SDS011;19850;49.576;10.880;2022-09-06T19:02:59;11.13;;;4.53;;
15022;SDS011;19850;49.576;10.880;2022-09-06T19:07:02;11.23;;;4.57;;
15022;SDS011;19850;49.576;10.880;2022-09-06T19:11:06;14.27;;;5.20;;
15022;SDS011;19850;49.576;10.880;2022-09-06T19:15:12;5.40;;;3.20;;
15022;SDS011;19850;49.576;10.880;2022-09-06T19:19:15;7.13;;;3.40;;
15022;SDS011;19850;49.576;10.880;2022-09-06T19:23:18;11.93;;;4.63;;
15022;SDS011;19850;49.576;10.880;2022-09-06T19:27:22;8.10;;;4.07;;
15022;SDS011;19850;49.576;10.880;2022-09-06T19:31:27;6.77;;;3.67;;
15022;SDS011;19850;49.576;10.880;2022-09-06T19:35:34;7.80;;;3.90;;
15022;SDS011;19850;49.576;10.880;2022-09-06T19:39:57;6.50;;;3.90;;
15022;SDS011;19850;49.576;10.880;2022-09-06T19:44:00;11.13;;;4.33;;
15022;SDS011;19850;49.576;10.880;2022-09-06T19:48:07;8.20;;;3.70;;
15022;SDS011;19850;49.576;10.880;2022-09-06T19:52:10;8.10;;;4.77;;
15022;SDS011;19850;49.576;10.880;2022-09-06T19:56:14;9.87;;;4.60;;
15022;SDS011;19850;49.576;10.880;2022-09-06T20:00:17;13.30;;;4.60;;
15022;SDS011;19850;49.576;10.880;2022-09-06T20:04:22;18.20;;;5.10;;
15022;SDS011;19850;49.576;10.880;2022-09-06T20:08:27;12.27;;;5.00;;
15022;SDS011;19850;49.576;10.880;2022-09-06T20:12:30;9.83;;;5.03;;
15022;SDS011;19850;49.576;10.880;2022-09-06T20:16:33;12.97;;;4.93;;
15022;SDS011;19850;49.576;10.880;2022-09-06T20:20:43;9.43;;;4.73;;
15022;SDS011;19850;49.576;10.880;2022-09-06T20:24:46;11.03;;;4.87;;
15022;SDS011;19850;49.576;10.880;2022-09-06T20:28:52;13.10;;;4.80;;
15022;SDS011;19850;49.576;10.880;2022-09-06T20:32:55;17.93;;;5.67;;
15022;SDS011;19850;49.576;10.880;2022-09-06T20:37:00;18.87;;;5.53;;
15022;SDS011;19850;49.576;10.880;2022-09-06T20:41:04;11.37;;;5.53;;
15022;SDS011;19850;49.576;10.880;2022-09-06T20:45:08;12.33;;;5.17;;
15022;SDS011;19850;49.576;10.880;2022-09-06T20:49:12;13.43;;;5.40;;
15022;SDS011;19850;49.576;10.880;2022-09-06T20:53:17;11.00;;;4.87;;
15022;SDS011;19850;49.576;10.880;2022-09-06T20:57:21;10.77;;;4.43;;
15022;SDS011;19850;49.576;10.880;2022-09-06T21:01:25;16.40;;;4.87;;
15022;SDS011;19850;49.576;10.880;2022-09-06T21:05:29;18.70;;;4.87;;
15022;SDS011;19850;49.576;10.880;2022-09-06T21:09:33;10.07;;;4.03;;
15022;SDS011;19850;49.576;10.880;2022-09-06T21:13:36;14.47;;;4.83;;
15022;SDS011;19850;49.576;10.880;2022-09-06T21:17:39;14.27;;;5.07;;
15022;SDS011;19850;49.576;10.880;2022-09-06T21:21:42;23.77;;;5.00;;
15022;SDS011;19850;49.576;10.880;2022-09-06T21:25:51;17.27;;;5.40;;
15022;SDS011;19850;49.576;10.880;2022-09-06T21:29:54;10.80;;;4.70;;
15022;SDS011;19850;49.576;10.880;2022-09-06T21:33:57;10.30;;;4.57;;
15022;SDS011;19850;49.576;10.880;2022-09-06T21:38:02;8.53;;;4.40;;
15022;SDS011;19850;49.576;10.880;2022-09-06T21:42:07;9.83;;;4.90;;
15022;SDS011;19850;49.576;10.880;2022-09-06T21:46:11;9.90;;;4.93;;
15022;SDS011;19850;49.576;10.880;2022-09-06T21:50:15;7.40;;;4.60;;
15022;SDS011;19850;49.576;10.880;2022-09-06T21:54:18;11.77;;;4.90;;
15022;SDS011;19850;49.576;10.880;2022-09-06T21:58:22;6.07;;;4.10;;
15022;SDS011;19850;49.576;10.880;2022-09-06T22:02:26;11.63;;;4.70;;
15022;SDS011;19850;49.576;10.880;2022-09-06T22:06:30;8.13;;;4.67;;
15022;SDS011;19850;49.576;10.880;2022-09-06T22:10:34;12.83;;;5.30;;
15022;SDS011;19850;49.576;10.880;2022-09-06T22:14:38;7.07;;;4.30;;
15022;SDS011;19850;49.576;10.880;2022-09-06T22:18:40;6.33;;;4.53;;
15022;SDS011;19850;49.576;10.880;2022-09-06T22:22:45;7.70;;;4.20;;
15022;SDS011;19850;49.576;10.880;2022-09-06T22:26:48;6.40;;;4.30;;
15022;SDS011;19850;49.576;10.880;2022-09-06T22:30:52;9.57;;;4.53;;
15022;SDS011;19850;49.576;10.880;2022-09-06T22:34:55;8.93;;;4.50;;
15022;SDS011;19850;49.576;10.880;2022-09-06T22:38:57;7.53;;;4.10;;
15022;SDS011;19850;49.576;10.880;2022-09-06T22:43:00;12.17;;;4.33;;
15022;SDS011;19850;49.576;10.880;2022-09-06T22:47:05;9.33;;;4.60;;
15022;SDS011;19850;49.576;10.880;2022-09-06T22:51:08;6.33;;;4.20;;
15022;SDS011;19850;49.576;10.880;2022-09-06T22:55:10;6.90;;;4.20;;
15022;SDS011;19850;49.576;10.880;2022-09-06T22:59:13;9.67;;;4.73;;
15022;SDS011;19850;49.576;10.880;2022-09-06T23:03:18;8.93;;;4.37;;
15022;SDS011;19850;49.576;10.880;2022-09-06T23:07:21;9.00;;;4.20;;
15022;SDS011;19850;49.576;10.880;2022-09-06T23:11:23;7.37;;;4.50;;
15022;SDS011;19850;49.576;10.880;2022-09-06T23:15:27;10.80;;;4.33;;
15022;SDS011;19850;49.576;10.880;2022-09-06T23:19:31;6.63;;;4.20;;
15022;SDS011;19850;49.576;10.880;2022-09-06T23:23:34;10.83;;;4.57;;
15022;SDS011;19850;49.576;10.880;2022-09-06T23:27:38;11.50;;;4.03;;
15022;SDS011;19850;49.576;10.880;2022-09-06T23:31:41;8.37;;;4.90;;
15022;SDS011;19850;49.576;10.880;2022-09-06T23:35:45;7.93;;;4.70;;
15022;SDS011;19850;49.576;10.880;2022-09-06T23:39:48;7.90;;;4.63;;
15022;SDS011;19850;49.576;10.880;2022-09-06T23:43:51;9.87;;;5.07;;
15022;SDS011;19850;49.576;10.880;2022-09-06T23:47:54;8.00;;;4.63;;
15022;SDS011;19850;49.576;10.880;2022-09-06T23:51:58;7.50;;;4.77;;
15022;SDS011;19850;49.576;10.880;2022-09-06T23:56:01;12.80;;;5.27;;
